Grand Marais, Michigan
Current Conditions -  °F | °C
As of 5:34 AM on Friday 24 Oct 2014 (Local Time) from KERY Reporting Station
Haze Haze  
Wind Chill: 45°   Ceiling: 500
Heat Index: 47°   Visibility: 4mi
Dew Point: 47°   Wind: 6mph
Humidity: 98%   Direction: 220°SW
Pressure: 29.98"   Gusts: NA
Location:  46.67°N, 85.99°W
Report Text: KERY 240934Z AUTO 22005KT 4SM BR OVC005 09/08 A2998 RMK AO2 T00860083
Loading
Personal Weather Stations






























Interactive Weather Map New forecast layout! Learn more

10-Day Weather Forecast

Advertisements
Track Severe Weather on mobile